Аэропорт: Актау. Актау

ICAO: UATE

METAR:
2020-10-24 06:00:00
UATE 240600Z 13006MPS CAVOK 13/07 Q1022 R12/0///70 NOSIG RMK QFE765/1020
METAR:
2020-10-24 05:06:00
TAF UATE 240506Z 2406/2506 13007MPS 9999 SCT033 TX18/2410Z TN04/2502Z BECMG 2408/2410 18006G12MPS TEMPO 2420/2503 16005MPS 3100 BR BKN011